Time;durP1;ratioP1;P1;durP2;ratioP2;P2;SDS_P1;SDS_P2;PMS_P1;PMS_P2;Temp;Humidity;BMP_temperature;BMP_pressure;BME280_temperature;BME280_humidity;BME280_pressure;Samples;Min_cycle;Max_cycle;Signal;HPM_P1;HPM_P2
2021/06/01 00:01:26;;;;;;;6.40;3.77;;;10.60;1.00;;;;;;5051842;28;20417;-72
2021/06/01 00:03:52;;;;;;;4.40;3.03;;;10.60;1.00;;;;;;5041453;28;20426;-72
2021/06/01 00:06:19;;;;;;;3.00;2.70;;;10.60;1.00;;;;;;5043827;28;20443;-72
2021/06/01 00:08:45;;;;;;;5.90;3.00;;;10.60;1.00;;;;;;5054947;28;20979;-72
2021/06/01 00:11:12;;;;;;;4.87;2.60;;;10.60;1.00;;;;;;5040956;28;20419;-72
2021/06/01 00:13:40;;;;;;;4.43;3.17;;;10.50;1.00;;;;;;5035025;28;20439;-72
2021/06/01 00:16:07;;;;;;;3.73;3.30;;;10.50;1.00;;;;;;5051453;28;20505;-74
2021/06/01 00:18:44;;;;;;;4.50;2.97;;;10.50;1.00;;;;;;5036309;28;20419;-75
2021/06/01 00:21:37;;;;;;;5.40;3.20;;;10.50;1.00;;;;;;5038144;28;20972;-74
2021/06/01 00:24:04;;;;;;;6.03;3.23;;;10.50;1.00;;;;;;5034676;28;20509;-74
2021/06/01 00:26:31;;;;;;;4.63;3.23;;;10.50;1.00;;;;;;5035040;28;20391;-75
2021/06/01 00:28:56;;;;;;;10.70;4.03;;;10.50;1.00;;;;;;5034709;28;20391;-74
2021/06/01 00:31:22;;;;;;;9.60;4.10;;;;;;;;;;5035684;28;20976;-74
2021/06/01 00:34:07;;;;;;;5.57;3.03;;;10.50;1.00;;;;;;5034586;28;20275;-74
2021/06/01 00:36:37;;;;;;;5.00;3.27;;;10.50;1.00;;;;;;5034962;28;20434;-74
2021/06/01 00:39:07;;;;;;;12.03;3.20;;;10.50;1.00;;;;;;5034725;28;20405;-74
2021/06/01 00:41:33;;;;;;;4.17;2.87;;;10.50;1.00;;;;;;5034811;28;20423;-75
2021/06/01 00:44:00;;;;;;;5.10;2.77;;;10.50;1.00;;;;;;5034592;28;20449;-75
2021/06/01 00:46:26;;;;;;;6.03;3.83;;;10.50;1.00;;;;;;5034933;28;20429;-74
2021/06/01 00:48:52;;;;;;;7.80;3.30;;;10.50;1.00;;;;;;5034139;28;20450;-74
2021/06/01 00:51:18;;;;;;;3.93;3.30;;;;;;;;;;5036372;28;20415;-74
2021/06/01 00:53:48;;;;;;;4.03;2.83;;;10.50;1.00;;;;;;5053471;28;20276;-74
2021/06/01 00:56:31;;;;;;;3.97;2.90;;;10.40;1.00;;;;;;5054516;28;20511;-75
2021/06/01 00:59:00;;;;;;;4.97;3.40;;;10.40;1.00;;;;;;5039078;28;20426;-74
2021/06/01 01:01:30;;;;;;;5.80;3.10;;;10.40;1.00;;;;;;5035454;28;20430;-72
2021/06/01 01:04:06;;;;;;;4.73;3.00;;;10.40;1.00;;;;;;5034106;28;20790;-72
2021/06/01 01:06:47;;;;;;;5.27;3.03;;;10.30;1.00;;;;;;5034127;28;20406;-72
2021/06/01 01:09:16;;;;;;;6.47;3.10;;;10.20;1.00;;;;;;5034022;28;20439;-72
2021/06/01 01:12:07;;;;;;;7.70;3.70;;;10.20;1.00;;;;;;5033811;28;21015;-72
2021/06/01 01:14:40;;;;;;;6.57;3.50;;;10.20;1.00;;;;;;5033808;28;20464;-72
2021/06/01 01:17:35;;;;;;;4.50;3.23;;;10.20;1.00;;;;;;5034332;28;20421;-74
2021/06/01 01:20:11;;;;;;;8.30;3.20;;;10.10;1.00;;;;;;5033964;28;20387;-74
2021/06/01 01:22:56;;;;;;;6.50;3.77;;;10.10;1.00;;;;;;5034682;28;20878;-74
2021/06/01 01:25:54;;;;;;;5.00;2.90;;;10.00;1.00;;;;;;5034836;28;20426;-74
2021/06/01 01:28:36;;;;;;;5.70;3.90;;;10.00;1.00;;;;;;5040412;28;20516;-74
2021/06/01 01:31:25;;;;;;;5.07;2.77;;;9.90;1.00;;;;;;5053864;28;20433;-72
2021/06/01 01:33:51;;;;;;;5.80;3.60;;;;;;;;;;5052326;28;20453;-72
2021/06/01 01:36:19;;;;;;;4.87;3.13;;;9.80;1.00;;;;;;5053655;28;20398;-72
2021/06/01 01:38:45;;;;;;;6.53;3.57;;;9.80;1.00;;;;;;5037480;28;20503;-72
2021/06/01 01:41:13;;;;;;;3.43;3.00;;;9.80;1.00;;;;;;5033478;28;20454;-72
2021/06/01 01:43:41;;;;;;;10.83;4.00;;;9.80;1.00;;;;;;5047481;28;20414;-72
2021/06/01 01:46:13;;;;;;;5.40;3.10;;;9.70;1.00;;;;;;5041081;28;20469;-72
2021/06/01 01:51:30;;;;;;;10.70;4.10;;;9.70;1.00;;;;;;5053557;28;20409;-72
2021/06/01 01:53:58;;;;;;;8.50;3.60;;;9.60;1.00;;;;;;5051437;28;20993;-72
2021/06/01 01:56:31;;;;;;;6.40;3.70;;;9.60;1.00;;;;;;5050006;28;20485;-72
2021/06/01 01:58:58;;;;;;;7.57;3.60;;;9.60;1.00;;;;;;5035928;28;20415;-72
2021/06/01 02:01:24;;;;;;;6.03;4.07;;;9.60;1.00;;;;;;5053102;28;20410;-72
2021/06/01 02:03:52;;;;;;;3.37;3.00;;;9.60;1.00;;;;;;5052235;28;20414;-72
2021/06/01 02:06:19;;;;;;;4.77;3.30;;;9.50;1.00;;;;;;5043748;28;20423;-72
2021/06/01 02:08:45;;;;;;;4.47;3.43;;;9.50;1.00;;;;;;5037159;28;20447;-72
2021/06/01 02:11:11;;;;;;;3.97;3.50;;;9.50;1.00;;;;;;5037186;28;20760;-72
2021/06/01 02:13:58;;;;;;;4.70;3.80;;;9.50;1.00;;;;;;5037213;28;20461;-72
2021/06/01 02:16:24;;;;;;;8.70;3.87;;;9.50;1.00;;;;;;5037750;28;20403;-72
2021/06/01 02:18:50;;;;;;;5.60;3.30;;;9.50;1.00;;;;;;5037139;28;20401;-72
2021/06/01 02:21:37;;;;;;;6.63;3.70;;;9.40;1.00;;;;;;5037176;28;20398;-72
2021/06/01 02:24:09;;;;;;;5.00;3.57;;;9.40;1.00;;;;;;5037100;28;20453;-72
2021/06/01 02:26:41;;;;;;;7.20;3.50;;;9.40;1.00;;;;;;5036975;28;20414;-72
2021/06/01 02:29:32;;;;;;;5.57;3.63;;;9.40;1.00;;;;;;5048734;28;20499;-72
2021/06/01 02:32:01;;;;;;;5.67;3.80;;;9.40;1.00;;;;;;5057252;28;20405;-72
2021/06/01 02:34:28;;;;;;;4.03;3.50;;;9.40;1.00;;;;;;5054846;28;20430;-72
2021/06/01 02:37:01;;;;;;;5.73;3.60;;;9.40;1.00;;;;;;5055774;28;20429;-75
2021/06/01 02:39:28;;;;;;;3.87;3.13;;;9.40;1.00;;;;;;5050668;28;20423;-74
2021/06/01 02:42:03;;;;;;;6.33;3.70;;;9.30;1.00;;;;;;5039136;28;20414;-74
2021/06/01 02:44:31;;;;;;;7.10;4.03;;;9.30;1.00;;;;;;5047157;28;20417;-74
2021/06/01 02:47:04;;;;;;;5.40;3.67;;;9.30;1.00;;;;;;5039656;28;20506;-72
2021/06/01 02:49:32;;;;;;;6.60;4.03;;;9.30;1.00;;;;;;5036790;28;20746;-72
2021/06/01 02:51:58;;;;;;;4.80;3.40;;;9.30;1.00;;;;;;5036825;28;20423;-72
2021/06/01 02:54:25;;;;;;;7.97;4.87;;;9.30;1.00;;;;;;5037086;28;20473;-72
2021/06/01 02:56:51;;;;;;;7.80;3.63;;;9.20;1.00;;;;;;5036644;28;20407;-72
2021/06/01 02:59:17;;;;;;;8.70;4.20;;;9.20;1.00;;;;;;5040211;28;20422;-72
2021/06/01 03:02:00;;;;;;;4.20;3.23;;;9.30;1.00;;;;;;5045447;28;20416;-74
2021/06/01 03:04:51;;;;;;;6.27;3.70;;;9.20;1.00;;;;;;5035514;28;20423;-74
2021/06/01 03:07:19;;;;;;;5.63;3.50;;;9.20;1.00;;;;;;5036503;28;20893;-72
2021/06/01 03:09:49;;;;;;;7.93;3.97;;;9.20;1.00;;;;;;5045700;28;20429;-72
2021/06/01 03:12:37;;;;;;;7.27;3.60;;;9.20;1.00;;;;;;5051493;28;20938;-72
2021/06/01 03:15:08;;;;;;;8.20;3.93;;;9.20;1.00;;;;;;5036101;28;20420;-72
2021/06/01 03:17:36;;;;;;;4.97;3.40;;;9.20;1.00;;;;;;5035454;28;20793;-74
2021/06/01 03:23:36;;;;;;;6.47;4.03;;;9.20;1.00;;;;;;5052630;28;20472;-76
2021/06/01 03:26:30;;;;;;;6.10;3.40;;;9.20;1.00;;;;;;5035789;28;20499;-78
2021/06/01 03:29:24;;;;;;;5.67;3.70;;;9.20;1.00;;;;;;5035302;28;20415;-77
2021/06/01 03:32:01;;;;;;;13.43;3.70;;;9.20;1.00;;;;;;5053410;28;20425;-78
2021/06/01 03:34:37;;;;;;;5.70;3.83;;;;;;;;;;5055393;28;20884;-79
2021/06/01 03:40:24;;;;;;;6.47;4.20;;;9.20;1.00;;;;;;5054148;28;20373;-78
2021/06/01 03:46:30;;;;;;;7.53;3.93;;;9.20;1.00;;;;;;5043624;28;20199;-78
2021/06/01 03:48:56;;;;;;;7.80;4.27;;;9.20;1.00;;;;;;5036267;28;20481;-75
2021/06/01 03:51:24;;;;;;;10.30;4.43;;;9.50;1.00;;;;;;5035258;28;20442;-75
2021/06/01 03:53:54;;;;;;;6.10;4.03;;;9.20;1.00;;;;;;5035760;28;20211;-75
2021/06/01 03:56:35;;;;;;;15.33;4.40;;;9.30;1.00;;;;;;5035318;28;20419;-75
2021/06/01 03:59:12;;;;;;;8.30;3.63;;;9.30;1.00;;;;;;5047022;28;20414;-75
2021/06/01 04:01:48;;;;;;;8.23;4.20;;;9.40;1.00;;;;;;5055368;28;20398;-75
2021/06/01 04:04:19;;;;;;;5.50;4.13;;;9.40;1.00;;;;;;5035927;28;20863;-74
2021/06/01 04:07:30;;;;;;;7.77;4.00;;;9.40;1.00;;;;;;5036157;28;20454;-75
2021/06/01 04:13:19;;;;;;;9.07;4.23;;;9.50;1.00;;;;;;5035255;28;20534;-75
2021/06/01 04:15:44;;;;;;;5.00;3.57;;;9.50;1.00;;;;;;5035398;28;20893;-75
2021/06/01 04:24:53;;;;;;;6.37;4.07;;;9.70;1.00;;;;;;5054592;28;20378;-77
2021/06/01 04:27:42;;;;;;;7.20;3.80;;;9.70;1.00;;;;;;5054407;28;20398;-78
2021/06/01 04:36:52;;;;;;;13.13;4.03;;;9.90;1.00;;;;;;5040713;28;20491;-77
2021/06/01 04:39:48;;;;;;;12.53;4.23;;;10.00;1.00;;;;;;5053114;28;20402;-77
2021/06/01 04:45:36;;;;;;;7.20;4.40;;;10.10;1.00;;;;;;5036962;28;20410;-78
2021/06/01 04:48:42;;;;;;;24.53;3.77;;;10.20;1.00;;;;;;5034811;28;20898;-78
2021/06/01 04:54:30;;;;;;;6.77;4.20;;;10.40;1.00;;;;;;5040703;28;20782;-78
2021/06/01 05:01:06;;;;;;;8.73;4.70;;;10.60;1.00;;;;;;5052203;28;20396;-78
2021/06/01 05:07:24;;;;;;;7.73;4.73;;;10.80;1.00;;;;;;5037349;28;20936;-78
2021/06/01 05:13:12;;;;;;;9.87;4.60;;;11.00;1.00;;;;;;5034197;28;21409;-78
2021/06/01 05:16:24;;;;;;;10.53;4.50;;;11.10;1.00;;;;;;5033848;28;20411;-78
2021/06/01 05:22:19;;;;;;;6.70;4.77;;;11.50;1.00;;;;;;5033640;28;20461;-77
2021/06/01 05:24:45;;;;;;;12.90;5.17;;;;;;;;;;5039579;28;20819;-75
2021/06/01 05:27:12;;;;;;;5.10;3.80;;;12.10;1.00;;;;;;5041428;28;20545;-75
2021/06/01 05:29:42;;;;;;;11.20;4.20;;;12.80;1.00;;;;;;5033068;28;20433;-75
2021/06/01 05:32:51;;;;;;;8.60;4.23;;;;;;;;;;5033054;28;20411;-75
2021/06/01 05:35:03;;;;;;;11.13;4.57;;;;;;;;;;5033013;28;20442;-72
2021/06/01 05:37:36;;;;;;;5.93;4.13;;;13.20;1.00;;;;;;5049273;28;20488;-72
2021/06/01 05:40:03;;;;;;;9.07;5.00;;;13.20;1.00;;;;;;5051707;28;20410;-72
2021/06/01 05:42:29;;;;;;;6.60;4.33;;;;;;;;;;5034460;28;20434;-72
2021/06/01 05:44:55;;;;;;;11.20;5.03;;;;;;;;;;5044146;28;20430;-72
2021/06/01 05:47:21;;;;;;;9.23;4.00;;;;;;;;;;5052248;28;20452;-72
2021/06/01 05:49:47;;;;;;;5.77;4.30;;;;;;;;;;5046557;28;20418;-72
2021/06/01 05:52:13;;;;;;;9.13;4.73;;;;;;;;;;5052411;28;20810;-72
2021/06/01 05:54:39;;;;;;;6.70;4.27;;;;;;;;;;5052604;28;20402;-72
2021/06/01 05:57:06;;;;;;;21.87;4.90;;;13.80;1.00;;;;;;5052459;28;20437;-72
2021/06/01 05:59:32;;;;;;;7.20;4.53;;;13.90;1.00;;;;;;5038611;28;20399;-74
2021/06/01 06:02:01;;;;;;;14.67;5.03;;;;;;;;;;5052442;28;20406;-75
2021/06/01 06:04:27;;;;;;;10.47;4.73;;;;;;;;;;5052890;28;20409;-78
2021/06/01 06:06:53;;;;;;;22.20;4.80;;;;;;;;;;5052415;28;20890;-78
2021/06/01 06:09:19;;;;;;;12.00;4.03;;;;;;;;;;5040540;28;20533;-79
2021/06/01 06:11:45;;;;;;;125.13;50.97;;;;;;;;;;5047972;28;20431;-79
2021/06/01 06:14:11;;;;;;;38.47;8.80;;;;;;;;;;5037314;28;20969;-79
2021/06/01 06:16:50;;;;;;;18.03;7.13;;;14.90;1.00;;;;;;5039967;28;20817;-78
2021/06/01 06:20:06;;;;;;;15.03;6.20;;;15.10;1.00;;;;;;5049331;28;20909;-79
2021/06/01 06:40:18;;;;;;;7.37;3.53;;;15.80;1.00;;;;;;5037213;28;20391;-78
2021/06/01 06:42:55;;;;;;;5.97;3.90;;;16.10;1.00;;;;;;5044756;28;20414;-75
2021/06/01 06:45:23;;;;;;;5.00;3.20;;;;;;;;;;5066086;28;20957;-74
2021/06/01 06:50:54;;;;;;;3.87;3.13;;;16.30;1.00;;;;;;5053114;28;20499;-83
2021/06/01 06:56:55;;;;;;;3.60;3.00;;;16.70;1.00;;;;;;5036506;28;20441;-82
2021/06/01 07:03:00;;;;;;;3.13;2.83;;;17.00;1.00;;;;;;5036493;28;20430;-83
2021/06/01 07:08:49;;;;;;;5.07;3.17;;;17.30;1.00;;;;;;5055934;28;20405;-78
2021/06/01 07:14:18;;;;;;;18.93;4.20;;;17.60;1.00;;;;;;5039908;28;20464;-78
2021/06/01 07:26:50;;;;;;;6.80;3.53;;;18.20;1.00;;;;;;5051310;28;20488;-82
2021/06/01 07:29:15;;;;;;;5.00;3.53;;;18.30;1.00;;;;;;5054235;28;20431;-83
2021/06/01 07:31:41;;;;;;;3.30;2.77;;;;;;;;;;5054425;28;20186;-83
2021/06/01 07:37:18;;;;;;;3.43;2.60;;;18.70;1.00;;;;;;5054046;28;20382;-83
2021/06/01 07:43:48;;;;;;;7.27;3.20;;;19.00;1.00;;;;;;5050147;28;20420;-83
2021/06/01 07:46:54;;;;;;;6.57;3.00;;;19.10;1.00;;;;;;5044321;28;20399;-81
2021/06/01 07:49:20;;;;;;;12.10;3.13;;;19.20;1.00;;;;;;5040557;28;20443;-75
2021/06/01 07:51:46;;;;;;;10.80;3.10;;;;;;;;;;5045769;28;20414;-74
2021/06/01 07:54:19;;;;;;;2.80;2.60;;;19.50;1.00;;;;;;5055959;28;20863;-74
2021/06/01 07:56:55;;;;;;;4.17;2.70;;;19.60;1.00;;;;;;5055430;28;20408;-74
2021/06/01 07:59:25;;;;;;;2.70;2.50;;;19.60;1.00;;;;;;5045550;28;20399;-74
2021/06/01 08:01:51;;;;;;;4.67;2.87;;;;;;;;;;5050251;28;20423;-75
2021/06/01 08:04:24;;;;;;;5.30;2.43;;;19.90;1.00;;;;;;5042901;28;20467;-75
2021/06/01 08:07:08;;;;;;;5.50;2.97;;;19.90;1.00;;;;;;5051596;28;20955;-74
2021/06/01 08:09:35;;;;;;;3.60;2.60;;;20.00;1.00;;;;;;5052401;28;20484;-75
2021/06/01 08:12:04;;;;;;;3.63;2.80;;;20.20;1.00;;;;;;5045913;28;20430;-71
2021/06/01 08:14:31;;;;;;;8.57;3.20;;;;;;;;;;5054908;28;20401;-72
2021/06/01 08:16:58;;;;;;;4.90;2.80;;;;;;;;;;5054827;28;20394;-72
2021/06/01 08:19:47;;;;;;;3.33;2.47;;;;;;;;;;5044931;28;20427;-74
2021/06/01 08:22:31;;;;;;;2.73;2.50;;;;;;;;;;5053428;28;20428;-74
2021/06/01 08:24:57;;;;;;;2.50;2.30;;;;;;;;;;5052447;28;20417;-74
2021/06/01 08:27:23;;;;;;;4.53;2.70;;;;;;;;;;5054040;28;20421;-74
2021/06/01 08:29:49;;;;;;;8.73;2.83;;;;;;;;;;5053493;28;20401;-75
2021/06/01 08:32:16;;;;;;;5.23;2.40;;;20.80;1.00;;;;;;5053587;28;20376;-74
2021/06/01 08:34:42;;;;;;;1.87;1.77;;;;;;;;;;5054008;28;20875;-74
2021/06/01 08:37:08;;;;;;;2.77;2.30;;;21.00;1.00;;;;;;5053774;28;20494;-74
2021/06/01 08:39:34;;;;;;;3.87;2.77;;;;;;;;;;5053512;28;20888;-74
2021/06/01 08:42:00;;;;;;;4.57;3.10;;;;;;;;;;5053580;28;20171;-74
2021/06/01 08:44:27;;;;;;;4.67;2.93;;;;;;;;;;5044717;28;20459;-75
2021/06/01 08:46:54;;;;;;;8.80;2.73;;;21.20;1.00;;;;;;5035312;28;20438;-75
2021/06/01 08:49:20;;;;;;;3.00;2.37;;;21.20;1.00;;;;;;5033639;28;20378;-74
2021/06/01 08:51:47;;;;;;;6.83;2.77;;;21.40;1.00;;;;;;5033782;28;20423;-72
2021/06/01 08:54:14;;;;;;;2.70;2.20;;;;;;;;;;5033759;28;21024;-72
2021/06/01 08:56:40;;;;;;;2.67;2.07;;;21.70;1.00;;;;;;5049742;28;20434;-72
2021/06/01 08:59:06;;;;;;;4.83;2.67;;;;;;;;;;5053327;28;20401;-72
2021/06/01 09:01:32;;;;;;;3.83;2.90;;;21.70;1.00;;;;;;5052064;28;20755;-72
2021/06/01 09:04:00;;;;;;;3.53;2.80;;;;;;;;;;5053111;28;20455;-72
2021/06/01 09:14:21;;;;;;;2.77;2.57;;;;;;;;;;5032958;28;20503;-72
2021/06/01 09:22:54;;;;;;;3.00;2.37;;;22.20;1.00;;;;;;5033532;28;20388;-74
2021/06/01 09:28:06;;;;;;;3.23;2.20;;;22.30;1.00;;;;;;4991385;28;20395;-74
2021/06/01 09:30:37;;;;;;;3.77;2.70;;;22.40;1.00;;;;;;4991094;28;20420;-74
2021/06/01 09:33:05;;;;;;;4.10;2.30;;;22.50;1.00;;;;;;4991380;28;20838;-75
2021/06/01 09:35:54;;;;;;;3.00;2.50;;;22.60;1.00;;;;;;4991800;28;20418;-74
2021/06/01 09:38:25;;;;;;;2.23;2.03;;;22.70;1.00;;;;;;4991368;28;20759;-74
2021/06/01 09:41:09;;;;;;;3.20;2.50;;;22.70;1.00;;;;;;4991452;28;20415;-74
2021/06/01 09:43:52;;;;;;;5.43;2.37;;;22.70;1.00;;;;;;4991122;28;20861;-74
2021/06/01 09:46:23;;;;;;;2.70;2.50;;;22.80;1.00;;;;;;4991243;28;20494;-74
2021/06/01 09:48:50;;;;;;;5.57;2.60;;;22.90;1.00;;;;;;4991280;28;20401;-74
2021/06/01 09:51:35;;;;;;;2.63;2.40;;;23.00;1.00;;;;;;4991573;28;20517;-74
2021/06/01 09:54:33;;;;;;;3.80;2.43;;;23.00;1.00;;;;;;4991152;28;20477;-74
2021/06/01 09:56:59;;;;;;;3.27;2.93;;;;;;;;;;5027084;28;20463;-74
2021/06/01 09:59:25;;;;;;;2.70;2.50;;;;;;;;;;5052407;28;20413;-74
2021/06/01 10:01:51;;;;;;;3.90;2.60;;;23.10;1.00;;;;;;5052664;28;20390;-74
2021/06/01 10:04:28;;;;;;;2.37;2.17;;;23.20;1.00;;;;;;5052616;28;20401;-74
2021/06/01 10:06:54;;;;;;;5.10;3.10;;;23.30;1.00;;;;;;5052866;28;20405;-74
2021/06/01 10:09:20;;;;;;;5.30;3.10;;;23.40;1.00;;;;;;5048287;28;20431;-74
2021/06/01 10:11:54;;;;;;;3.50;2.43;;;23.40;1.00;;;;;;5032528;28;20392;-74
2021/06/01 10:14:19;;;;;;;5.20;2.60;;;23.60;1.00;;;;;;5032314;28;20987;-74
2021/06/01 10:16:45;;;;;;;2.77;2.57;;;23.60;1.00;;;;;;5032668;28;20427;-74
2021/06/01 10:19:11;;;;;;;2.60;2.40;;;23.70;1.00;;;;;;5032568;28;20193;-74
2021/06/01 10:21:37;;;;;;;3.13;2.73;;;;;;;;;;5032888;28;20439;-72
2021/06/01 10:24:03;;;;;;;3.27;2.70;;;23.70;1.00;;;;;;5032312;28;20192;-72
2021/06/01 10:26:29;;;;;;;2.40;2.20;;;;;;;;;;5034580;28;20399;-72
2021/06/01 10:28:56;;;;;;;3.43;2.40;;;23.90;1.00;;;;;;5035889;28;20454;-72
2021/06/01 10:31:21;;;;;;;3.40;2.17;;;23.90;1.00;;;;;;5036273;28;20380;-72
2021/06/01 10:33:54;;;;;;;1.80;1.70;;;24.00;1.00;;;;;;5036022;28;20797;-72
2021/06/01 10:50:48;;;;;;;2.30;2.10;;;24.30;1.00;;;;;;4994259;28;20516;-72
2021/06/01 10:53:18;;;;;;;9.73;2.50;;;24.30;1.00;;;;;;4994150;28;20849;-72
2021/06/01 10:55:54;;;;;;;3.00;2.10;;;24.30;1.00;;;;;;4994139;28;20419;-72
2021/06/01 10:58:26;;;;;;;3.30;2.40;;;24.30;1.00;;;;;;5004819;28;20564;-72
2021/06/01 11:04:06;;;;;;;2.60;2.40;;;24.60;1.00;;;;;;5013636;28;20520;-72
2021/06/01 11:09:37;;;;;;;2.20;2.00;;;24.70;1.00;;;;;;5013401;28;20576;-72
2021/06/01 11:12:22;;;;;;;5.00;2.50;;;24.70;1.00;;;;;;5013515;28;20411;-72
2021/06/01 11:14:57;;;;;;;2.40;2.20;;;24.80;1.00;;;;;;5013893;28;20439;-72
2021/06/01 11:17:33;;;;;;;3.27;2.07;;;24.60;1.00;;;;;;5035418;28;20398;-72
2021/06/01 11:20:19;;;;;;;2.30;2.10;;;24.70;1.00;;;;;;5035329;28;20389;-72
2021/06/01 11:23:01;;;;;;;2.60;2.40;;;;;;;;;;5035706;28;20427;-74
2021/06/01 11:33:31;;;;;;;3.17;1.97;;;24.90;1.00;;;;;;5035367;28;20444;-74
2021/06/01 11:36:03;;;;;;;2.13;1.93;;;24.90;1.00;;;;;;5050438;28;20898;-74
2021/06/01 11:38:38;;;;;;;5.33;1.97;;;25.00;1.00;;;;;;5035254;28;20418;-74
2021/06/01 11:41:23;;;;;;;2.40;2.30;;;25.00;1.00;;;;;;5035095;28;20393;-74
2021/06/01 11:43:51;;;;;;;10.40;2.40;;;24.90;1.00;;;;;;5034898;28;20406;-74
2021/06/01 11:46:27;;;;;;;3.37;2.33;;;24.90;1.00;;;;;;5034863;28;20406;-74
2021/06/01 11:51:26;;;;;;;4.47;2.37;;;25.20;1.00;;;;;;5035427;28;20409;-72
2021/06/01 11:53:56;;;;;;;4.40;1.97;;;25.30;1.00;;;;;;5034981;28;20469;-72
2021/06/01 12:18:40;;;;;;;3.80;1.73;;;;;;;;;;5033609;28;20432;-75
2021/06/01 12:21:07;;;;;;;2.33;1.70;;;;;;;;;;5033262;28;20391;-74
2021/06/01 12:23:38;;;;;;;2.70;1.87;;;25.40;1.00;;;;;;5033258;28;20404;-72
2021/06/01 12:32:22;;;;;;;6.10;2.30;;;25.90;1.00;;;;;;4991556;28;20420;-72
2021/06/01 12:45:52;;;;;;;2.50;2.30;;;26.40;1.00;;;;;;4933415;29;20991;-74
2021/06/01 13:22:30;;;;;;;3.93;2.13;;;26.90;1.00;;;;;;4953199;29;20410;-72
2021/06/01 13:39:10;;;;;;;10.23;1.90;;;27.40;1.00;;;;;;5033542;28;20527;-72
2021/06/01 13:47:04;;;;;;;4.07;2.70;;;27.50;1.00;;;;;;5032881;28;20412;-72
2021/06/01 13:49:42;;;;;;;3.07;2.00;;;27.50;1.00;;;;;;5032813;28;20429;-72
2021/06/01 13:55:14;;;;;;;4.40;2.07;;;27.80;1.00;;;;;;5033242;28;20410;-74
2021/06/01 13:58:12;;;;;;;2.40;2.20;;;27.80;1.00;;;;;;5032565;28;20451;-74
2021/06/01 14:30:24;;;;;;;2.20;2.00;;;28.50;1.00;;;;;;5050379;28;20878;-72
2021/06/01 15:22:31;;;;;;;3.00;2.30;;;30.80;1.00;;;;;;5011911;28;20431;-73
2021/06/01 15:49:07;;;;;;;3.53;1.73;;;41.80;1.00;;;;;;5024681;28;20478;-75
2021/06/01 15:55:08;;;;;;;1.60;1.50;;;41.90;1.00;;;;;;5033402;28;20423;-75
2021/06/01 16:11:40;;;;;;;2.97;1.60;;;39.10;1.00;;;;;;5033223;28;20462;-76
2021/06/01 16:44:06;;;;;;;3.27;1.30;;;;;;;;;;4992897;28;20459;-81
2021/06/01 17:04:49;;;;;;;1.70;1.30;;;;;;;;;;5033894;28;20517;-75
2021/06/01 17:07:35;;;;;;;2.00;1.10;;;47.00;1.00;;;;;;5042374;28;20462;-75
2021/06/01 17:12:55;;;;;;;3.57;1.37;;;46.40;1.00;;;;;;5053182;28;20892;-81
2021/06/01 17:15:21;;;;;;;1.43;1.10;;;46.70;1.00;;;;;;5053179;28;20405;-83
2021/06/01 17:17:56;;;;;;;1.27;1.17;;;46.60;1.00;;;;;;5053037;28;20420;-84
2021/06/01 17:36:55;;;;;;;1.47;1.20;;;;;;;;;;5011311;28;20391;-80
2021/06/01 17:39:21;;;;;;;1.10;1.10;;;45.30;1.00;;;;;;5010968;28;20416;-79
2021/06/01 17:41:51;;;;;;;4.40;1.30;;;44.40;1.00;;;;;;5010680;28;20479;-81
2021/06/01 17:44:22;;;;;;;3.23;1.30;;;42.20;1.00;;;;;;5010733;28;20526;-81
2021/06/01 17:46:48;;;;;;;3.90;1.87;;;40.10;1.00;;;;;;5010899;28;20872;-81
2021/06/01 17:49:14;;;;;;;1.83;1.30;;;;;;;;;;5010878;28;20412;-79
2021/06/01 17:51:43;;;;;;;5.93;1.60;;;37.30;1.00;;;;;;5010821;28;20419;-79
2021/06/01 17:54:09;;;;;;;7.83;2.40;;;;;;;;;;5010799;28;20432;-80
2021/06/01 17:56:39;;;;;;;3.90;1.80;;;34.60;1.00;;;;;;5011080;28;20397;-79
2021/06/01 17:59:04;;;;;;;2.23;2.03;;;33.20;1.00;;;;;;5010805;28;20421;-78
2021/06/01 18:01:31;;;;;;;5.53;1.80;;;;;;;;;;5010833;28;20411;-78
2021/06/01 18:04:00;;;;;;;3.40;2.10;;;31.20;1.00;;;;;;5010562;28;20205;-78
2021/06/01 18:06:30;;;;;;;2.20;2.00;;;30.10;1.00;;;;;;5029632;28;20785;-78
2021/06/01 18:09:05;;;;;;;3.53;2.07;;;29.30;1.00;;;;;;5032515;28;20491;-78
2021/06/01 19:01:55;;;;;;;4.40;2.87;;;22.00;1.00;;;;;;5014836;28;20429;-73
2021/06/01 19:24:28;;;;;;;8.43;3.10;;;20.20;1.00;;;;;;5013827;28;20510;-74
2021/06/01 19:50:16;;;;;;;4.17;2.63;;;18.40;1.00;;;;;;5035999;28;20386;-74
2021/06/01 19:52:44;;;;;;;4.23;2.93;;;18.30;1.00;;;;;;5038395;28;20409;-74
2021/06/01 19:55:20;;;;;;;3.40;3.10;;;18.20;1.00;;;;;;5035580;28;20944;-74
2021/06/01 19:57:49;;;;;;;3.37;2.97;;;18.00;1.00;;;;;;5042861;28;20387;-71
2021/06/01 20:00:16;;;;;;;6.53;3.23;;;17.90;1.00;;;;;;5049884;28;20389;-71
2021/06/01 20:02:43;;;;;;;4.47;3.13;;;17.80;1.00;;;;;;5041966;28;20868;-72
2021/06/01 20:05:11;;;;;;;6.63;3.10;;;17.60;1.00;;;;;;5035215;28;20431;-71
2021/06/01 20:07:37;;;;;;;5.90;2.73;;;17.50;1.00;;;;;;5042079;28;20467;-72
2021/06/01 20:10:06;;;;;;;3.37;3.07;;;17.50;1.00;;;;;;5048567;28;20411;-72
2021/06/01 20:13:00;;;;;;;3.70;3.03;;;17.40;1.00;;;;;;5041723;28;20726;-74
2021/06/01 20:15:44;;;;;;;5.40;3.53;;;17.20;1.00;;;;;;5055359;28;20489;-74
2021/06/01 20:18:25;;;;;;;3.60;3.07;;;17.10;1.00;;;;;;5049105;28;20873;-74
2021/06/01 20:20:56;;;;;;;7.23;3.03;;;17.00;1.00;;;;;;5035166;28;20363;-73
2021/06/01 20:23:33;;;;;;;7.43;3.20;;;16.90;1.00;;;;;;5035355;28;20437;-74
2021/06/01 20:25:59;;;;;;;5.07;2.60;;;16.90;1.00;;;;;;5035009;28;20386;-74
2021/06/01 20:28:36;;;;;;;4.97;3.33;;;16.80;1.00;;;;;;5035443;28;20366;-73
2021/06/01 20:31:05;;;;;;;3.70;2.73;;;16.70;1.00;;;;;;5036489;28;20399;-73
2021/06/01 20:33:36;;;;;;;3.23;2.93;;;16.60;1.00;;;;;;5052674;28;20562;-74
2021/06/01 20:36:03;;;;;;;4.33;3.00;;;16.50;1.00;;;;;;5054933;28;20384;-74
2021/06/01 20:38:31;;;;;;;5.87;3.10;;;;;;;;;;5054828;28;20369;-73
2021/06/01 20:41:01;;;;;;;3.47;3.17;;;;;;;;;;5043025;28;20438;-73
2021/06/01 20:43:27;;;;;;;3.27;2.97;;;16.30;1.00;;;;;;5034823;28;20437;-71
2021/06/01 20:45:53;;;;;;;7.70;3.90;;;;;;;;;;5052911;28;20385;-72
2021/06/01 20:48:21;;;;;;;4.83;3.03;;;16.10;1.00;;;;;;5054552;28;20712;-71
2021/06/01 20:50:52;;;;;;;4.50;3.53;;;16.00;1.00;;;;;;5054485;28;20429;-72
2021/06/01 20:53:25;;;;;;;10.00;4.20;;;16.00;1.00;;;;;;5041627;28;20437;-72
2021/06/01 20:55:53;;;;;;;6.03;3.03;;;15.90;1.00;;;;;;5034144;28;20423;-72
2021/06/01 20:58:41;;;;;;;9.53;3.60;;;15.80;1.00;;;;;;5033323;28;20830;-71
2021/06/01 21:01:10;;;;;;;5.33;3.67;;;15.80;1.00;;;;;;5033854;28;20853;-72
2021/06/01 21:03:37;;;;;;;4.60;3.13;;;;;;;;;;5033523;28;20463;-71
2021/06/01 21:06:03;;;;;;;6.33;3.87;;;15.70;1.00;;;;;;5033922;28;20393;-72
2021/06/01 21:08:30;;;;;;;7.70;3.80;;;15.60;1.00;;;;;;5033306;28;20430;-72
2021/06/01 21:11:00;;;;;;;4.20;3.67;;;15.50;1.00;;;;;;5033279;28;20953;-72
2021/06/01 21:13:27;;;;;;;6.40;3.40;;;;;;;;;;5048483;28;20721;-72
2021/06/01 21:15:53;;;;;;;5.27;3.70;;;15.40;1.00;;;;;;5037452;28;20402;-72
2021/06/01 21:18:19;;;;;;;5.87;3.80;;;;;;;;;;5034006;28;20441;-72
2021/06/01 21:20:45;;;;;;;4.53;3.63;;;15.30;1.00;;;;;;5033754;28;20374;-71
2021/06/01 21:23:11;;;;;;;14.13;4.07;;;15.20;1.00;;;;;;5033420;28;20450;-71
2021/06/01 21:25:39;;;;;;;4.30;3.30;;;15.10;1.00;;;;;;5034595;28;20415;-71
2021/06/01 21:28:06;;;;;;;5.93;3.47;;;15.10;1.00;;;;;;5034357;28;20429;-71
2021/06/01 21:30:32;;;;;;;4.60;3.80;;;15.10;1.00;;;;;;5033422;28;20415;-71
2021/06/01 21:33:01;;;;;;;5.73;3.80;;;15.00;1.00;;;;;;5039151;28;20399;-72
2021/06/01 21:35:30;;;;;;;5.53;3.90;;;14.90;1.00;;;;;;5053765;28;20434;-71
2021/06/01 21:38:06;;;;;;;9.30;3.87;;;14.90;1.00;;;;;;5050800;28;20425;-72
2021/06/01 21:40:40;;;;;;;6.20;3.83;;;14.80;1.00;;;;;;5034135;28;20423;-72
2021/06/01 21:43:07;;;;;;;6.50;4.07;;;14.80;1.00;;;;;;5033862;28;20504;-71
2021/06/01 21:45:35;;;;;;;4.37;3.47;;;14.70;1.00;;;;;;5033784;28;20403;-72
2021/06/01 21:48:14;;;;;;;8.60;4.00;;;14.70;1.00;;;;;;5033506;28;20944;-72
2021/06/01 21:50:42;;;;;;;6.67;3.80;;;14.60;1.00;;;;;;5052819;28;20406;-71
2021/06/01 21:53:12;;;;;;;4.27;3.37;;;14.60;1.00;;;;;;5043064;28;20529;-72
2021/06/01 21:55:39;;;;;;;5.77;3.80;;;14.50;1.00;;;;;;5047357;28;20428;-72
2021/06/01 21:58:19;;;;;;;3.77;3.37;;;14.50;1.00;;;;;;5041496;28;20423;-73
2021/06/01 22:00:51;;;;;;;9.40;3.60;;;14.40;1.00;;;;;;5033546;28;20419;-73
2021/06/01 22:03:25;;;;;;;4.07;3.43;;;14.40;1.00;;;;;;5033644;28;20533;-73
2021/06/01 22:06:02;;;;;;;4.43;3.80;;;14.30;1.00;;;;;;5044384;28;20801;-73
2021/06/01 22:08:27;;;;;;;4.43;3.80;;;14.20;1.00;;;;;;5053352;28;20897;-73
2021/06/01 22:11:01;;;;;;;6.67;4.10;;;;;;;;;;5050086;28;20421;-73
2021/06/01 22:13:32;;;;;;;5.70;3.90;;;;;;;;;;5034023;28;20250;-72
2021/06/01 22:15:59;;;;;;;9.47;4.00;;;14.10;1.00;;;;;;5033785;28;20400;-72
2021/06/01 22:18:39;;;;;;;6.20;4.20;;;14.10;1.00;;;;;;5037873;28;20416;-72
2021/06/01 22:21:10;;;;;;;7.93;4.50;;;14.00;1.00;;;;;;5036963;28;20423;-72
2021/06/01 22:23:40;;;;;;;9.10;4.50;;;14.00;1.00;;;;;;5041132;28;20454;-71
2021/06/01 22:26:06;;;;;;;4.10;3.70;;;13.90;1.00;;;;;;5037104;28;20506;-71
2021/06/01 22:28:51;;;;;;;5.33;3.90;;;13.90;1.00;;;;;;5037687;28;20530;-73